Time;durP1;ratioP1;P1;durP2;ratioP2;P2;SDS_P1;SDS_P2;PMS_P1;PMS_P2;Temp;Humidity;BMP_temperature;BMP_pressure;BME280_temperature;BME280_humidity;BME280_pressure;Samples;Min_cycle;Max_cycle;Signal;HPM_P1;HPM_P2
2022/03/29 00:01:00;;;;;;;18.00;11.05;;;;;;;18.25;21.68;98676.16;4916706;29;20044;-49
2022/03/29 00:03:26;;;;;;;15.63;12.02;;;;;;;18.24;21.83;98670.03;4915348;29;20032;-50
2022/03/29 00:05:52;;;;;;;15.73;11.25;;;;;;;18.11;21.72;98668.59;4915296;29;20032;-50
2022/03/29 00:08:18;;;;;;;16.23;11.73;;;;;;;18.08;22.02;98663.78;4915260;29;20111;-50
2022/03/29 00:10:44;;;;;;;18.48;11.68;;;;;;;18.34;21.69;98667.50;4916538;29;20506;-50
2022/03/29 00:13:11;;;;;;;16.23;12.32;;;;;;;18.66;21.66;98661.41;4915106;29;20028;-50
2022/03/29 00:15:37;;;;;;;17.30;12.02;;;;;;;18.53;21.68;98667.94;4915131;29;20036;-50
2022/03/29 00:18:03;;;;;;;19.58;11.70;;;;;;;18.34;21.74;98653.41;4915138;29;20020;-50
2022/03/29 00:20:29;;;;;;;16.48;11.38;;;;;;;18.06;22.25;98655.25;4916353;29;20039;-48
2022/03/29 00:22:55;;;;;;;14.55;11.32;;;;;;;18.04;21.76;98646.75;4916337;29;20036;-50
2022/03/29 00:25:21;;;;;;;15.13;11.02;;;;;;;18.01;21.76;98649.91;4914727;29;20047;-50
2022/03/29 00:27:49;;;;;;;19.95;11.82;;;;;;;17.87;22.11;98649.50;4916261;29;20024;-50
2022/03/29 00:30:16;;;;;;;14.73;10.88;;;;;;;17.63;22.37;98648.91;4916170;29;20024;-51
2022/03/29 00:32:44;;;;;;;14.98;11.35;;;;;;;17.43;22.39;98646.00;4914822;29;20504;-50
2022/03/29 00:35:10;;;;;;;18.63;11.82;;;;;;;17.36;22.50;98633.72;4914787;29;20031;-50
2022/03/29 00:37:41;;;;;;;17.95;12.20;;;;;;;17.49;22.80;98632.56;4916075;29;20039;-50
2022/03/29 00:40:10;;;;;;;16.50;12.45;;;;;;;17.48;22.95;98624.84;4914744;29;20392;-50
2022/03/29 00:42:36;;;;;;;19.00;12.27;;;;;;;17.32;23.07;98623.84;4914719;29;20036;-50
2022/03/29 00:45:03;;;;;;;20.95;13.23;;;;;;;17.30;23.03;98613.47;4914711;29;20020;-49
2022/03/29 00:47:29;;;;;;;17.48;12.48;;;;;;;17.28;23.30;98618.22;4914608;29;20076;-49
2022/03/29 00:49:55;;;;;;;16.42;12.43;;;;;;;17.11;23.59;98618.25;4914562;29;20031;-50
2022/03/29 00:52:22;;;;;;;18.25;11.27;;;;;;;17.17;23.56;98616.50;4914474;29;20032;-51
2022/03/29 00:54:48;;;;;;;20.20;13.07;;;;;;;17.20;23.62;98615.19;4914593;29;20070;-50
2022/03/29 00:57:14;;;;;;;19.98;12.23;;;;;;;17.21;23.79;98608.84;4914536;29;20084;-50
2022/03/29 00:59:45;;;;;;;17.35;12.73;;;;;;;17.33;23.71;98604.22;4915809;29;20032;-50
2022/03/29 01:02:12;;;;;;;19.20;14.02;;;;;;;17.28;23.96;98594.34;4915817;29;20405;-50
2022/03/29 01:04:38;;;;;;;24.95;14.00;;;;;;;17.41;24.61;98590.53;4915782;29;20020;-50
2022/03/29 01:07:04;;;;;;;18.75;11.77;;;;;;;17.55;24.12;98583.00;4914379;29;20109;-50
2022/03/29 01:09:33;;;;;;;20.15;12.38;;;;;;;17.52;23.99;98580.84;4915706;29;20394;-51
2022/03/29 01:11:59;;;;;;;14.52;10.77;;;;;;;17.53;24.04;98577.94;4914246;29;20024;-50
2022/03/29 01:14:26;;;;;;;18.58;12.82;;;;;;;17.51;24.16;98571.28;4914402;29;20037;-50
2022/03/29 01:19:38;;;;;;;17.35;12.40;;;;;;;17.44;24.23;98565.34;4915942;29;20119;-49
2022/03/29 01:22:10;;;;;;;18.52;12.88;;;;;;;17.37;24.61;98561.03;4914294;29;20046;-50
2022/03/29 01:24:37;;;;;;;15.95;11.35;;;;;;;17.23;24.51;98554.50;4915436;29;20032;-50
2022/03/29 01:27:05;;;;;;;18.23;12.88;;;;;;;17.06;24.81;98545.78;4898796;29;20096;-49
2022/03/29 01:29:33;;;;;;;22.58;11.82;;;;;;;16.99;25.11;98540.69;4914300;29;20096;-50
2022/03/29 01:32:03;;;;;;;21.15;13.50;;;;;;;16.71;25.21;98537.09;4914129;29;20521;-50
2022/03/29 01:34:29;;;;;;;17.27;13.25;;;;;;;16.32;25.70;98533.63;4915420;29;20032;-50
2022/03/29 01:36:55;;;;;;;17.48;12.60;;;;;;;16.12;26.24;98532.25;4915484;29;20522;-50
2022/03/29 01:39:21;;;;;;;17.38;12.80;;;;;;;16.13;25.91;98530.41;4914108;29;20024;-50
2022/03/29 01:41:48;;;;;;;16.23;12.27;;;;;;;16.10;25.96;98531.69;4914142;29;20031;-50
2022/03/29 01:44:14;;;;;;;18.52;12.80;;;;;;;16.04;25.54;98537.13;4915404;29;20376;-49
2022/03/29 01:46:40;;;;;;;17.83;12.25;;;;;;;15.96;25.62;98520.59;4915363;29;20450;-50
2022/03/29 01:49:06;;;;;;;17.98;11.82;;;;;;;15.97;25.39;98522.19;4913975;29;20029;-50
2022/03/29 01:51:33;;;;;;;19.33;12.70;;;;;;;15.87;25.65;98524.66;4914052;29;20398;-50
2022/03/29 01:54:02;;;;;;;23.00;12.93;;;;;;;15.76;25.90;98521.06;4915216;29;20027;-50
2022/03/29 01:56:31;;;;;;;20.75;13.23;;;;;;;15.84;26.34;98516.41;4915227;29;20028;-50
2022/03/29 01:59:04;;;;;;;20.42;12.77;;;;;;;15.77;26.68;98511.25;4915227;29;20020;-50
2022/03/29 02:01:30;;;;;;;17.15;12.45;;;;;;;15.74;26.63;98517.84;4915314;29;20488;-51
2022/03/29 02:03:56;;;;;;;17.85;12.30;;;;;;;15.81;26.51;98507.09;4913861;29;20131;-50
2022/03/29 02:06:21;;;;;;;19.00;11.95;;;;;;;15.84;26.54;98503.19;4913904;29;20028;-50
2022/03/29 02:08:47;;;;;;;16.27;12.70;;;;;;;15.76;26.70;98499.88;4915194;29;20052;-50
2022/03/29 02:11:13;;;;;;;21.30;12.90;;;;;;;15.76;26.96;98505.19;4915110;29;20053;-50
2022/03/29 02:13:39;;;;;;;22.17;12.73;;;;;;;15.70;26.90;98505.31;4913739;29;20028;-49
2022/03/29 02:16:05;;;;;;;24.13;13.88;;;;;;;15.57;26.84;98496.63;4913789;29;20034;-50
2022/03/29 02:18:31;;;;;;;16.63;12.57;;;;;;;15.65;26.81;98498.06;4914958;29;20059;-50
2022/03/29 02:20:57;;;;;;;19.30;13.10;;;;;;;15.56;26.84;98500.28;4917220;29;20055;-50
2022/03/29 02:23:22;;;;;;;19.58;13.38;;;;;;;15.50;26.93;98501.25;4918488;29;20024;-50
2022/03/29 02:25:48;;;;;;;24.98;13.43;;;;;;;15.38;26.87;98493.34;4918187;29;20040;-50
2022/03/29 02:28:15;;;;;;;28.88;15.32;;;;;;;15.30;27.08;98495.59;4917323;29;20040;-50
2022/03/29 02:30:40;;;;;;;23.80;13.00;;;;;;;15.23;26.99;98493.09;4917047;29;20034;-50
2022/03/29 02:33:07;;;;;;;21.92;13.57;;;;;;;15.18;27.22;98491.13;4918196;29;20035;-50
2022/03/29 02:35:33;;;;;;;23.25;13.70;;;;;;;15.18;27.75;98491.13;4918227;29;20075;-49
2022/03/29 02:37:59;;;;;;;23.63;14.65;;;;;;;15.24;27.62;98483.31;4918203;29;20024;-50
2022/03/29 02:40:26;;;;;;;21.80;15.00;;;;;;;15.28;27.22;98479.16;4916850;29;20067;-50
2022/03/29 02:42:53;;;;;;;19.08;14.55;;;;;;;15.31;27.37;98487.41;4917068;29;20095;-50
2022/03/29 02:45:24;;;;;;;24.17;14.32;;;;;;;15.37;27.43;98481.19;4918323;29;20020;-50
2022/03/29 02:47:52;;;;;;;21.77;13.90;;;;;;;15.33;27.46;98479.22;4918084;29;20431;-50
2022/03/29 02:50:19;;;;;;;18.42;13.55;;;;;;;15.28;27.61;98474.66;4917975;29;20032;-50
2022/03/29 02:52:47;;;;;;;23.10;14.10;;;;;;;15.26;27.49;98474.09;4917966;29;20028;-50
2022/03/29 02:55:14;;;;;;;24.77;14.40;;;;;;;15.30;27.98;98474.44;4917928;29;20051;-50
2022/03/29 02:57:41;;;;;;;26.90;16.45;;;;;;;15.38;27.82;98471.41;4916633;29;20035;-50
2022/03/29 03:00:08;;;;;;;22.75;14.63;;;;;;;15.35;27.93;98474.50;4917812;29;20450;-50
2022/03/29 03:02:35;;;;;;;19.98;15.32;;;;;;;15.26;27.97;98466.16;4917776;29;20032;-50
2022/03/29 03:05:01;;;;;;;22.60;15.02;;;;;;;15.31;27.71;98460.16;4917762;29;20029;-51
2022/03/29 03:07:27;;;;;;;22.58;13.88;;;;;;;15.33;27.86;98461.53;4917656;29;20028;-49
2022/03/29 03:09:53;;;;;;;21.85;14.60;;;;;;;15.35;28.04;98456.00;4917891;29;20514;-50
2022/03/29 03:12:20;;;;;;;24.85;14.80;;;;;;;15.44;27.80;98454.59;4917558;29;20084;-50
2022/03/29 03:14:46;;;;;;;24.05;16.40;;;;;;;15.50;27.73;98453.63;4916273;29;20127;-49
2022/03/29 03:17:13;;;;;;;27.60;15.73;;;;;;;15.57;27.60;98456.13;4917520;29;20140;-50
2022/03/29 03:19:38;;;;;;;23.40;13.90;;;;;;;15.65;27.65;98454.94;4917511;29;20023;-50
2022/03/29 03:22:04;;;;;;;19.23;14.13;;;;;;;15.68;27.34;98449.97;4917474;29;20435;-50
2022/03/29 03:24:30;;;;;;;25.95;15.48;;;;;;;15.61;27.39;98449.31;4915889;29;20020;-50
2022/03/29 03:26:56;;;;;;;24.23;14.68;;;;;;;15.57;27.46;98448.19;4916045;29;20115;-50
2022/03/29 03:29:22;;;;;;;20.67;14.45;;;;;;;15.50;27.73;98442.25;4915397;29;20028;-50
2022/03/29 03:31:47;;;;;;;28.23;15.82;;;;;;;15.48;27.62;98447.00;4915554;29;20032;-50
2022/03/29 03:34:14;;;;;;;24.13;16.08;;;;;;;15.48;27.73;98441.69;4917212;29;20031;-50
2022/03/29 03:36:40;;;;;;;21.95;16.05;;;;;;;15.50;27.75;98442.25;4917208;29;20028;-50
2022/03/29 03:39:06;;;;;;;27.55;15.50;;;;;;;15.54;27.57;98438.91;4917077;29;20039;-51
2022/03/29 03:41:32;;;;;;;21.02;14.02;;;;;;;15.52;27.58;98442.81;4915763;29;20028;-50
2022/03/29 03:43:58;;;;;;;23.60;14.52;;;;;;;15.56;27.53;98449.25;4917052;29;20032;-50
2022/03/29 03:46:24;;;;;;;26.50;16.38;;;;;;;15.62;27.70;98443.00;4917001;29;20048;-50
2022/03/29 03:48:50;;;;;;;22.20;14.18;;;;;;;15.68;27.60;98441.25;4916923;29;20056;-50
2022/03/29 03:51:16;;;;;;;22.90;14.90;;;;;;;15.76;27.28;98433.72;4916937;29;20446;-50
2022/03/29 03:53:42;;;;;;;23.80;14.20;;;;;;;15.82;27.33;98431.97;4916790;29;20031;-51
2022/03/29 03:56:08;;;;;;;23.17;15.10;;;;;;;15.74;27.51;98430.53;4916817;29;20024;-50
2022/03/29 03:58:33;;;;;;;21.10;14.20;;;;;;;15.69;27.56;98429.59;4916843;29;20080;-50
2022/03/29 04:00:59;;;;;;;25.00;14.27;;;;;;;15.72;27.76;98424.66;4916687;29;20455;-50
2022/03/29 04:03:25;;;;;;;22.73;15.38;;;;;;;15.86;27.66;98427.81;4915388;29;20091;-50
2022/03/29 04:05:52;;;;;;;24.27;14.57;;;;;;;15.94;27.60;98426.59;4915284;29;20092;-50
2022/03/29 04:08:18;;;;;;;24.38;15.70;;;;;;;16.05;27.60;98417.75;4916645;29;20052;-50
2022/03/29 04:10:44;;;;;;;20.48;14.80;;;;;;;16.02;27.52;98422.72;4915203;29;20032;-49
2022/03/29 04:13:10;;;;;;;23.08;15.68;;;;;;;15.89;27.61;98418.56;4916443;29;20063;-50
2022/03/29 04:15:36;;;;;;;22.25;15.40;;;;;;;15.82;27.90;98410.00;4915155;29;20064;-50
2022/03/29 04:18:02;;;;;;;25.25;15.60;;;;;;;15.88;27.82;98412.50;4915058;29;20056;-50
2022/03/29 04:20:29;;;;;;;22.27;14.75;;;;;;;15.78;27.90;98404.41;4916378;29;20410;-50
2022/03/29 04:22:56;;;;;;;22.10;15.23;;;;;;;15.69;28.33;98397.84;4916289;29;20031;-50
2022/03/29 04:25:22;;;;;;;29.52;15.75;;;;;;;15.72;28.25;98403.50;4916054;29;20044;-50
2022/03/29 04:27:48;;;;;;;22.15;14.45;;;;;;;15.66;28.11;98401.78;4914954;29;20115;-50
2022/03/29 04:30:14;;;;;;;24.52;15.95;;;;;;;15.47;27.98;98403.06;4916254;29;20498;-50
2022/03/29 04:32:40;;;;;;;29.67;14.43;;;;;;;15.19;28.40;98394.09;4916144;29;20027;-48
2022/03/29 04:35:06;;;;;;;24.45;14.90;;;;;;;15.08;28.52;98398.41;4916090;29;20036;-50
2022/03/29 04:37:32;;;;;;;25.38;15.82;;;;;;;15.00;28.98;98403.28;4916091;29;20115;-50
2022/03/29 04:39:58;;;;;;;21.15;14.65;;;;;;;14.93;28.43;98406.88;4916101;29;20107;-50
2022/03/29 04:42:23;;;;;;;26.02;15.63;;;;;;;14.81;28.29;98398.19;4914480;29;20402;-50
2022/03/29 04:44:49;;;;;;;21.27;14.35;;;;;;;14.65;28.77;98397.09;4915976;29;20024;-50
2022/03/29 04:47:15;;;;;;;22.92;15.43;;;;;;;14.56;28.93;98401.91;4915968;29;20024;-50
2022/03/29 04:49:41;;;;;;;24.83;15.25;;;;;;;14.55;29.26;98408.22;4915921;29;20036;-50
2022/03/29 04:52:06;;;;;;;27.58;15.93;;;;;;;14.58;29.58;98407.75;4914509;29;20032;-49
2022/03/29 04:54:32;;;;;;;30.95;16.10;;;;;;;14.55;29.82;98408.22;4914593;29;20118;-50
2022/03/29 04:57:00;;;;;;;28.27;16.77;;;;;;;14.58;32.80;98402.47;4915803;29;20469;-50
2022/03/29 04:59:26;;;;;;;25.58;16.15;;;;;;;14.80;33.46;98404.50;4915810;29;20032;-50
2022/03/29 05:01:52;;;;;;;23.92;16.13;;;;;;;14.95;32.55;98404.81;4914498;29;20489;-50
2022/03/29 05:04:19;;;;;;;28.13;17.65;;;;;;;15.10;32.34;98406.13;4914450;29;20119;-50
2022/03/29 05:06:45;;;;;;;29.33;16.02;;;;;;;14.92;32.07;98402.63;4915711;29;20030;-50
2022/03/29 05:09:10;;;;;;;26.42;17.27;;;;;;;14.93;31.54;98398.13;4915723;29;20036;-50
2022/03/29 05:11:36;;;;;;;23.25;16.83;;;;;;;14.89;32.05;98399.63;4915608;29;20083;-50
2022/03/29 05:14:02;;;;;;;25.55;17.90;;;;;;;14.91;31.14;98400.19;4915600;29;20020;-50
2022/03/29 05:16:28;;;;;;;25.45;15.82;;;;;;;14.86;31.00;98400.91;4914355;29;20473;-51
2022/03/29 05:18:54;;;;;;;28.52;17.38;;;;;;;14.87;32.03;98399.88;4914324;29;20111;-50
2022/03/29 05:21:20;;;;;;;33.03;17.83;;;;;;;14.95;31.43;98398.69;4915574;29;20028;-49
2022/03/29 05:23:45;;;;;;;25.88;16.25;;;;;;;15.00;30.81;98398.00;4915547;29;20506;-50
2022/03/29 05:26:11;;;;;;;28.33;16.45;;;;;;;14.90;31.45;98390.69;4915279;29;20083;-50
2022/03/29 05:28:37;;;;;;;26.20;15.05;;;;;;;14.97;31.59;98394.00;4914245;29;20522;-50
2022/03/29 05:31:03;;;;;;;26.27;16.30;;;;;;;14.95;32.48;98396.88;4915471;29;20031;-50
2022/03/29 05:33:28;;;;;;;24.27;16.23;;;;;;;14.87;31.70;98391.13;4914159;29;20028;-49
2022/03/29 05:35:54;;;;;;;166.02;129.63;;;;;;;14.85;33.46;98388.75;4915431;29;20024;-50
2022/03/29 05:38:20;;;;;;;45.20;25.77;;;;;;;15.05;32.29;98383.06;4914176;29;20050;-50
2022/03/29 05:40:45;;;;;;;31.58;19.15;;;;;;;14.91;31.59;98376.41;4914098;29;20035;-50
2022/03/29 05:43:11;;;;;;;29.20;18.42;;;;;;;14.82;31.90;98383.13;4915434;29;20558;-51
2022/03/29 05:45:39;;;;;;;26.95;16.92;;;;;;;14.80;31.49;98377.28;4914378;29;20114;-50
2022/03/29 05:50:52;;;;;;;;;;;;;;;14.94;30.90;98383.88;4915792;29;20111;-51
2022/03/29 05:53:18;;;;;;;66.38;37.42;;;;;;;14.99;31.17;98376.06;4916159;29;19922;-51
2022/03/29 05:55:45;;;;;;;39.33;22.20;;;;;;;15.14;30.72;98380.81;4917663;29;20060;-49
2022/03/29 05:58:12;;;;;;;32.67;20.02;;;;;;;15.24;30.34;98374.91;4918937;29;20031;-50
2022/03/29 06:00:38;;;;;;;25.42;17.45;;;;;;;15.34;30.72;98375.09;4919099;29;20039;-49
2022/03/29 06:03:04;;;;;;;31.63;17.98;;;;;;;15.51;30.20;98381.19;4918915;29;20056;-49
2022/03/29 06:05:30;;;;;;;32.45;17.15;;;;;;;15.72;29.99;98379.69;4918798;29;20035;-49
2022/03/29 06:07:56;;;;;;;40.15;17.63;;;;;;;15.91;29.64;98374.16;4918806;29;20029;-50
2022/03/29 06:10:21;;;;;;;29.98;16.52;;;;;;;16.02;29.17;98377.72;4918798;29;20028;-50
2022/03/29 06:12:47;;;;;;;27.48;15.98;;;;;;;16.00;29.25;98382.47;4918594;29;20024;-50
2022/03/29 06:15:15;;;;;;;25.50;16.52;;;;;;;16.18;29.52;98380.38;4918679;29;20032;-50
2022/03/29 06:17:41;;;;;;;25.75;16.38;;;;;;;16.50;28.96;98376.25;4918720;29;20032;-50
2022/03/29 06:20:10;;;;;;;27.02;17.25;;;;;;;16.55;28.43;98374.47;4918649;29;20032;-50
2022/03/29 06:22:43;;;;;;;30.42;16.70;;;;;;;16.50;28.70;98369.13;4917241;29;20036;-50
2022/03/29 06:25:10;;;;;;;24.75;15.52;;;;;;;16.62;28.95;98368.19;4918280;29;20127;-49
2022/03/29 06:27:36;;;;;;;29.88;17.77;;;;;;;16.95;28.83;98365.41;4918456;29;20060;-50
2022/03/29 06:30:07;;;;;;;29.85;15.90;;;;;;;17.16;27.84;98361.13;4918410;29;20523;-50
2022/03/29 06:32:33;;;;;;;26.77;16.35;;;;;;;17.50;27.83;98357.41;4918328;29;20172;-50
2022/03/29 06:35:00;;;;;;;24.50;15.63;;;;;;;17.84;28.10;98365.91;4918638;29;20048;-50
2022/03/29 06:37:26;;;;;;;31.92;16.52;;;;;;;18.12;27.67;98359.44;4918278;29;20028;-51
2022/03/29 06:39:51;;;;;;;37.00;16.98;;;;;;;18.49;27.01;98360.41;4918272;29;20034;-51
2022/03/29 06:42:18;;;;;;;26.67;16.27;;;;;;;18.84;26.21;98364.31;4918187;29;20044;-51
2022/03/29 06:44:45;;;;;;;31.02;16.40;;;;;;;18.81;25.83;98354.19;4916822;29;20028;-50
2022/03/29 06:47:11;;;;;;;22.02;14.45;;;;;;;18.72;25.48;98359.97;4918121;29;20036;-51
2022/03/29 06:49:37;;;;;;;63.63;19.90;;;;;;;18.71;25.40;98363.72;4918011;29;20070;-50
2022/03/29 06:52:04;;;;;;;51.80;17.10;;;;;;;18.80;25.88;98357.91;4916652;29;20479;-50
2022/03/29 06:54:30;;;;;;;51.22;17.58;;;;;;;19.09;25.48;98363.53;4917997;29;20020;-51
2022/03/29 06:56:56;;;;;;;30.38;15.73;;;;;;;19.43;24.60;98355.06;4917931;29;20035;-50
2022/03/29 06:59:22;;;;;;;30.25;13.77;;;;;;;19.80;23.77;98357.47;4917889;29;20076;-50
2022/03/29 07:01:49;;;;;;;36.72;15.13;;;;;;;20.22;23.50;98347.50;4916527;29;20028;-50
2022/03/29 07:04:15;;;;;;;43.42;16.85;;;;;;;20.73;23.06;98344.66;4917686;29;20024;-50
2022/03/29 07:06:41;;;;;;;25.35;14.07;;;;;;;21.31;22.38;98344.03;4917775;29;20032;-51
2022/03/29 07:11:52;;;;;;;45.70;16.65;;;;;;;22.44;21.50;98338.41;4917957;29;20046;-51
2022/03/29 07:14:18;;;;;;;40.53;15.00;;;;;;;22.78;21.23;98329.41;4917608;29;20455;-50
2022/03/29 07:16:45;;;;;;;27.40;13.82;;;;;;;23.28;20.34;98337.78;4917529;29;20035;-51
2022/03/29 07:19:12;;;;;;;30.10;14.27;;;;;;;23.60;19.87;98320.09;4916288;29;20123;-51
2022/03/29 07:21:39;;;;;;;22.50;13.82;;;;;;;24.24;19.19;98316.81;4916138;29;20043;-51
2022/03/29 07:24:09;;;;;;;30.98;13.82;;;;;;;24.70;18.28;98318.56;4917457;29;20028;-51
2022/03/29 07:26:37;;;;;;;29.52;13.77;;;;;;;24.55;18.50;98310.81;4917159;29;20431;-51
2022/03/29 07:29:04;;;;;;;19.38;13.35;;;;;;;24.58;18.55;98308.34;4917354;29;20103;-50
2022/03/29 07:31:31;;;;;;;21.75;13.50;;;;;;;24.61;18.41;98306.94;4917291;29;20590;-51
2022/03/29 07:33:57;;;;;;;21.13;12.45;;;;;;;24.79;18.08;98311.38;4915928;29;20025;-50
2022/03/29 07:36:23;;;;;;;18.80;13.82;;;;;;;24.86;17.79;98301.00;4915943;29;20020;-51
2022/03/29 07:38:49;;;;;;;21.65;12.63;;;;;;;24.47;18.30;98312.31;4915870;29;20083;-51
2022/03/29 07:41:16;;;;;;;21.00;12.43;;;;;;;24.03;18.42;98321.78;4917158;29;20020;-50
2022/03/29 07:43:42;;;;;;;16.70;12.55;;;;;;;23.60;18.74;98328.13;4917045;29;20028;-50
2022/03/29 07:46:08;;;;;;;22.42;12.20;;;;;;;23.16;18.94;98332.09;4917028;29;20027;-50
2022/03/29 07:48:34;;;;;;;21.15;12.23;;;;;;;22.74;19.21;98329.19;4916860;29;20111;-51
2022/03/29 07:51:00;;;;;;;23.60;13.55;;;;;;;22.41;19.87;98335.50;4916853;29;20075;-51
2022/03/29 07:53:26;;;;;;;23.10;14.15;;;;;;;22.45;19.97;98334.63;4916847;29;20167;-51
2022/03/29 07:55:52;;;;;;;26.98;14.60;;;;;;;22.53;20.26;98331.31;4916811;29;20024;-51
2022/03/29 07:58:21;;;;;;;29.27;14.48;;;;;;;22.53;20.12;98333.19;4916814;29;20072;-51
2022/03/29 08:00:50;;;;;;;37.75;16.85;;;;;;;22.59;20.46;98337.41;4915474;29;20474;-51
2022/03/29 08:03:18;;;;;;;34.67;13.55;;;;;;;23.41;19.94;98327.41;4916694;29;20036;-50
2022/03/29 08:05:45;;;;;;;26.70;12.90;;;;;;;24.23;18.50;98332.09;4915364;29;20447;-51
2022/03/29 08:08:15;;;;;;;22.38;13.25;;;;;;;24.41;17.00;98327.72;4916673;29;20032;-50
2022/03/29 08:10:42;;;;;;;23.50;11.77;;;;;;;24.72;16.99;98325.19;4916561;29;20024;-50
2022/03/29 08:13:10;;;;;;;25.27;12.60;;;;;;;25.12;17.08;98317.31;4916465;29;20031;-51
2022/03/29 08:15:37;;;;;;;17.13;12.13;;;;;;;25.30;16.52;98320.94;4916002;29;20087;-51
2022/03/29 08:18:03;;;;;;;19.92;12.02;;;;;;;25.21;16.45;98313.88;4915281;29;20024;-51
2022/03/29 08:20:30;;;;;;;19.95;12.35;;;;;;;25.50;16.32;98314.25;4916418;29;20017;-51
2022/03/29 08:23:00;;;;;;;20.20;12.63;;;;;;;26.11;16.33;98316.47;4915063;29;20047;-51
2022/03/29 08:25:31;;;;;;;17.98;11.95;;;;;;;26.74;15.65;98317.06;4916269;29;20044;-51
2022/03/29 08:27:58;;;;;;;19.77;12.43;;;;;;;26.78;15.44;98319.94;4916322;29;20075;-51
2022/03/29 08:30:26;;;;;;;23.30;11.85;;;;;;;26.39;15.31;98306.25;4916247;29;20024;-50
2022/03/29 08:32:53;;;;;;;17.42;11.48;;;;;;;26.03;15.59;98312.63;4916104;29;20076;-51
2022/03/29 08:35:20;;;;;;;18.98;11.60;;;;;;;25.94;16.12;98313.69;4916171;29;20028;-52
2022/03/29 08:37:47;;;;;;;15.52;11.60;;;;;;;25.92;15.78;98319.41;4914877;29;20036;-51
2022/03/29 08:40:16;;;;;;;18.10;11.90;;;;;;;25.74;15.82;98312.34;4916120;29;20027;-51
2022/03/29 08:42:46;;;;;;;16.20;11.93;;;;;;;25.88;16.14;98313.81;4916094;29;20095;-51
2022/03/29 08:45:14;;;;;;;21.92;11.90;;;;;;;26.04;15.86;98314.22;4916071;29;20024;-51
2022/03/29 08:47:42;;;;;;;16.13;10.80;;;;;;;25.98;15.91;98314.66;4915991;29;20020;-51
2022/03/29 08:50:10;;;;;;;17.55;13.27;;;;;;;25.35;16.07;98309.28;4915921;29;20103;-51
2022/03/29 08:52:37;;;;;;;22.13;13.30;;;;;;;24.62;17.03;98321.97;4915794;29;20439;-51
2022/03/29 08:55:03;;;;;;;17.02;11.43;;;;;;;24.30;17.11;98323.66;4915852;29;20024;-51
2022/03/29 08:57:30;;;;;;;27.08;12.73;;;;;;;23.81;17.46;98301.03;4915838;29;20020;-51
2022/03/29 08:59:57;;;;;;;16.52;12.30;;;;;;;23.27;17.88;98312.09;4914489;29;20032;-51
2022/03/29 09:02:23;;;;;;;16.85;11.90;;;;;;;22.79;18.32;98311.47;4915784;29;20398;-50
2022/03/29 09:05:15;;;;;;;28.35;16.35;;;;;;;22.40;18.97;98313.31;4914491;29;20059;-51
2022/03/29 09:07:55;;;;;;;23.27;14.00;;;;;;;22.11;19.16;98313.34;4914444;29;20553;-51
2022/03/29 09:10:23;;;;;;;18.40;13.00;;;;;;;21.98;19.38;98312.19;4915666;29;20079;-51
2022/03/29 09:12:49;;;;;;;26.00;14.70;;;;;;;21.80;19.61;98312.91;4915570;29;20455;-51
2022/03/29 09:15:16;;;;;;;19.65;13.90;;;;;;;21.44;19.82;98299.91;4915689;29;20513;-51
2022/03/29 09:17:45;;;;;;;18.08;12.48;;;;;;;21.23;19.86;98300.03;4915641;29;20368;-49
2022/03/29 09:20:22;;;;;;;42.33;14.90;;;;;;;21.06;20.53;98302.31;4915602;29;20036;-50
2022/03/29 09:22:51;;;;;;;20.02;12.85;;;;;;;21.01;20.60;98295.16;4915614;29;20503;-51
2022/03/29 09:25:20;;;;;;;22.88;14.07;;;;;;;21.09;20.58;98277.75;4913981;29;20048;-50
2022/03/29 09:27:57;;;;;;;18.02;12.82;;;;;;;21.38;20.26;98283.09;4914304;29;20040;-50
2022/03/29 09:30:31;;;;;;;19.27;11.40;;;;;;;21.64;19.67;98280.22;4918219;29;20519;-50
2022/03/29 09:33:05;;;;;;;17.45;12.60;;;;;;;21.50;20.29;98272.84;4918113;29;20120;-51
2022/03/29 09:35:37;;;;;;;22.27;12.75;;;;;;;21.64;20.33;98281.00;4919341;29;20110;-51
2022/03/29 09:38:24;;;;;;;18.67;12.63;;;;;;;22.06;19.63;98268.00;4919649;29;20064;-51
2022/03/29 09:40:50;;;;;;;19.45;12.05;;;;;;;22.45;19.38;98265.09;4919319;29;20111;-51
2022/03/29 09:43:16;;;;;;;18.88;12.00;;;;;;;22.85;19.34;98262.13;4917986;29;20071;-51
2022/03/29 09:45:46;;;;;;;24.50;15.70;;;;;;;23.17;19.47;98257.94;4917906;29;20059;-51
2022/03/29 09:48:32;;;;;;;23.15;14.02;;;;;;;23.31;18.21;98248.81;4919209;29;20116;-50
2022/03/29 09:51:10;;;;;;;15.98;11.80;;;;;;;22.74;19.01;98256.16;4917766;29;20032;-50
2022/03/29 09:53:47;;;;;;;24.45;14.95;;;;;;;22.25;19.50;98265.38;4918955;29;20032;-50
2022/03/29 09:56:24;;;;;;;17.13;12.38;;;;;;;22.02;20.03;98258.97;4919136;29;20406;-50
2022/03/29 09:59:11;;;;;;;21.45;13.27;;;;;;;22.28;19.96;98248.78;4919048;29;20024;-51
2022/03/29 10:01:57;;;;;;;17.75;12.68;;;;;;;23.24;19.45;98253.78;4918933;29;20060;-50
2022/03/29 10:04:31;;;;;;;38.30;20.83;;;;;;;24.19;18.89;98236.47;4918875;29;20468;-50
2022/03/29 10:07:01;;;;;;;32.33;17.98;;;;;;;25.07;17.89;98226.16;4918871;29;20040;-51
2022/03/29 10:09:35;;;;;;;29.95;15.77;;;;;;;26.37;17.60;98219.66;4918832;29;20027;-51
2022/03/29 10:12:06;;;;;;;25.77;11.80;;;;;;;26.90;16.27;98215.88;4917484;29;20132;-51
2022/03/29 10:14:37;;;;;;;28.60;17.00;;;;;;;26.85;16.57;98215.25;4918730;29;20071;-51
2022/03/29 10:17:06;;;;;;;18.02;10.70;;;;;;;26.83;15.28;98201.31;4917473;29;20044;-50
2022/03/29 10:19:33;;;;;;;22.67;14.30;;;;;;;25.99;16.17;98222.16;4917375;29;20024;-51
2022/03/29 10:22:01;;;;;;;17.80;12.25;;;;;;;25.57;16.89;98200.94;4917253;29;20032;-51
2022/03/29 10:24:30;;;;;;;29.00;13.85;;;;;;;25.61;17.12;98209.19;4916999;29;20056;-51
2022/03/29 10:27:00;;;;;;;26.30;10.60;;;;;;;26.13;15.72;98187.84;4917237;29;20132;-51
2022/03/29 10:29:27;;;;;;;22.17;11.27;;;;;;;25.65;15.75;98197.50;4918448;29;20031;-51
2022/03/29 10:31:56;;;;;;;19.33;10.35;;;;;;;24.92;16.29;98187.03;4917099;29;20498;-51
2022/03/29 10:34:37;;;;;;;23.90;12.20;;;;;;;24.49;17.18;98189.41;4916955;29;20035;-51
2022/03/29 10:37:23;;;;;;;23.60;11.65;;;;;;;24.35;17.13;98184.09;4917118;29;20403;-51
2022/03/29 10:40:03;;;;;;;21.13;10.02;;;;;;;24.12;17.35;98181.34;4916479;29;20044;-52
2022/03/29 10:42:41;;;;;;;24.27;11.77;;;;;;;23.80;17.44;98178.84;4918264;29;20122;-51
2022/03/29 10:45:13;;;;;;;24.13;10.93;;;;;;;23.32;18.26;98164.75;4916864;29;20046;-50
2022/03/29 10:47:40;;;;;;;18.88;9.73;;;;;;;23.12;18.43;98168.59;4916812;29;20049;-51
2022/03/29 10:50:10;;;;;;;22.02;11.95;;;;;;;23.02;18.24;98167.94;4916630;29;20085;-51
2022/03/29 10:52:43;;;;;;;23.58;9.75;;;;;;;22.91;18.56;98162.75;4917992;29;20117;-51
2022/03/29 10:55:16;;;;;;;26.02;10.93;;;;;;;22.78;18.52;98149.34;4917928;29;20103;-51
2022/03/29 10:58:12;;;;;;;28.20;11.63;;;;;;;22.88;19.09;98160.69;4916655;29;20072;-50
2022/03/29 11:00:44;;;;;;;28.58;15.40;;;;;;;23.53;18.98;98151.75;4916630;29;20401;-51
2022/03/29 11:03:23;;;;;;;21.65;12.02;;;;;;;24.41;17.97;98152.56;4916628;29;20034;-51
2022/03/29 11:06:12;;;;;;;24.63;10.52;;;;;;;24.87;16.91;98141.53;4916593;29;20111;-52
2022/03/29 11:08:46;;;;;;;18.55;8.75;;;;;;;24.46;17.08;98147.88;4917846;29;20024;-51
2022/03/29 11:11:40;;;;;;;28.35;11.95;;;;;;;23.60;18.11;98137.94;4917846;29;20024;-50
2022/03/29 11:14:39;;;;;;;21.02;11.50;;;;;;;22.92;18.67;98129.56;4917690;29;20068;-51
2022/03/29 11:17:13;;;;;;;28.35;10.60;;;;;;;22.66;18.67;98099.78;4896235;29;20114;-50
2022/03/29 11:19:50;;;;;;;21.25;10.43;;;;;;;22.18;19.14;98133.94;4917633;29;20115;-50
2022/03/29 11:22:23;;;;;;;42.90;12.98;;;;;;;21.86;19.42;98084.69;4917473;29;20410;-50
2022/03/29 11:24:50;;;;;;;22.23;8.35;;;;;;;21.70;19.24;98126.84;4917105;29;20056;-51
2022/03/29 11:27:22;;;;;;;25.50;8.30;;;;;;;21.60;19.27;98122.41;4917482;29;20048;-50
2022/03/29 11:29:49;;;;;;;24.98;7.93;;;;;;;21.53;19.64;98106.75;4916060;29;20533;-50